createdAt,value
2018-05-19T00:01:30.249Z,13.23
2018-05-19T00:03:57.777Z,14.43
2018-05-19T00:06:25.295Z,14.80
2018-05-19T00:08:52.833Z,13.50
2018-05-19T00:11:20.354Z,13.97
2018-05-19T00:13:47.875Z,13.53
2018-05-19T00:16:15.402Z,14.50
2018-05-19T00:18:42.918Z,13.83
2018-05-19T00:21:10.449Z,13.03
2018-05-19T00:23:37.961Z,15.27
2018-05-19T00:26:06.249Z,13.03
2018-05-19T00:28:34.527Z,14.97
2018-05-19T00:31:02.049Z,13.57
2018-05-19T00:33:29.568Z,13.57
2018-05-19T00:35:57.107Z,15.17
2018-05-19T00:38:24.636Z,14.00
2018-05-19T00:40:52.158Z,14.73
2018-05-19T00:43:19.673Z,15.00
2018-05-19T00:45:47.954Z,14.20
2018-05-19T00:48:16.244Z,15.60
2018-05-19T00:50:43.763Z,16.90
2018-05-19T00:53:11.281Z,15.40
2018-05-19T00:55:38.793Z,13.70
2018-05-19T00:58:07.082Z,15.53
2018-05-19T01:00:35.361Z,14.53
2018-05-19T01:03:03.637Z,12.37
2018-05-19T01:05:31.166Z,14.27
2018-05-19T01:08:00.198Z,13.50
2018-05-19T01:10:27.717Z,13.17
2018-05-19T01:12:55.242Z,14.90
2018-05-19T01:15:22.765Z,16.30
2018-05-19T01:17:51.054Z,14.57
2018-05-19T01:20:18.580Z,16.00
2018-05-19T01:22:46.099Z,17.60
2018-05-19T01:25:13.625Z,17.20
2018-05-19T01:27:41.147Z,18.47
2018-05-19T01:30:08.661Z,17.60
2018-05-19T01:32:36.183Z,16.97
2018-05-19T01:35:04.469Z,17.77
2018-05-19T01:37:32.763Z,17.27
2018-05-19T01:40:00.298Z,16.80
2018-05-19T01:42:28.656Z,14.93
2018-05-19T01:44:56.125Z,16.73
2018-05-19T01:47:23.697Z,17.63
2018-05-19T01:49:51.974Z,14.20
2018-05-19T01:52:20.259Z,13.97
2018-05-19T01:54:47.794Z,15.80
2018-05-19T01:57:16.089Z,15.13
2018-05-19T01:59:44.373Z,16.10
2018-05-19T02:02:11.889Z,15.03
2018-05-19T02:04:39.413Z,15.57
2018-05-19T02:07:06.949Z,15.53
2018-05-19T02:09:35.242Z,17.50
2018-05-19T02:12:02.761Z,15.53
2018-05-19T02:14:30.293Z,15.37
2018-05-19T02:16:57.810Z,14.30
2018-05-19T02:19:25.342Z,13.37
2018-05-19T02:21:52.874Z,15.60
2018-05-19T02:24:20.389Z,15.47
2018-05-19T02:26:47.905Z,14.50
2018-05-19T02:29:15.419Z,15.27
2018-05-19T02:31:42.938Z,17.30
2018-05-19T02:34:11.225Z,16.17
2018-05-19T02:36:39.524Z,16.10
2018-05-19T02:39:07.044Z,17.57
2018-05-19T02:41:34.557Z,18.13
2018-05-19T02:44:02.103Z,16.90
2018-05-19T02:46:29.621Z,16.67
2018-05-19T02:48:57.136Z,17.17
2018-05-19T02:51:24.653Z,16.47
2018-05-19T02:53:52.933Z,18.80
2018-05-19T02:56:21.222Z,16.07
2018-05-19T02:58:48.737Z,16.20
2018-05-19T03:01:16.261Z,17.50
2018-05-19T03:03:43.781Z,15.40
2018-05-19T03:06:12.065Z,17.97
2018-05-19T03:08:40.355Z,16.40
2018-05-19T03:11:07.878Z,17.57
2018-05-19T03:13:35.402Z,16.67
2018-05-19T03:16:02.923Z,22.00
2018-05-19T03:18:30.470Z,16.83
2018-05-19T03:20:58.749Z,17.93
2018-05-19T03:23:26.273Z,16.70
2018-05-19T03:25:53.799Z,16.63
2018-05-19T03:28:21.317Z,17.77
2018-05-19T03:30:49.609Z,16.83
2018-05-19T03:33:17.133Z,16.43
2018-05-19T03:35:44.661Z,15.80
2018-05-19T03:38:12.175Z,18.03
2018-05-19T03:40:40.458Z,15.53
2018-05-19T03:43:08.737Z,17.90
2018-05-19T03:45:37.025Z,17.83
2018-05-19T03:48:04.537Z,17.00
2018-05-19T03:50:32.074Z,15.00
2018-05-19T03:52:59.600Z,15.00
2018-05-19T03:55:27.114Z,16.80
2018-05-19T03:58:06.649Z,17.40
2018-05-19T04:00:46.126Z,16.80
2018-05-19T04:03:13.662Z,18.20
2018-05-19T04:05:41.189Z,20.03
2018-05-19T04:08:09.657Z,16.50
2018-05-19T04:10:37.178Z,16.77
2018-05-19T04:13:05.456Z,17.97
2018-05-19T04:15:33.750Z,16.53
2018-05-19T04:18:01.270Z,17.33
2018-05-19T04:20:28.815Z,17.20
2018-05-19T04:22:56.331Z,17.13
2018-05-19T04:25:23.848Z,20.67
2018-05-19T04:27:51.364Z,19.70
2018-05-19T04:30:18.886Z,20.37
2018-05-19T04:32:47.161Z,21.23
2018-05-19T04:35:15.445Z,18.40
2018-05-19T04:37:42.968Z,18.30
2018-05-19T04:40:10.562Z,19.07
2018-05-19T04:42:38.087Z,18.13
2018-05-19T04:45:05.610Z,18.73
2018-05-19T04:47:33.136Z,18.20
2018-05-19T04:50:01.421Z,18.23
2018-05-19T04:52:28.946Z,17.47
2018-05-19T04:54:56.454Z,18.70
2018-05-19T04:57:23.971Z,17.57
2018-05-19T04:59:51.498Z,19.07
2018-05-19T05:02:19.009Z,18.47
2018-05-19T05:04:46.529Z,17.57
2018-05-19T05:07:14.229Z,17.77
2018-05-19T05:09:42.517Z,19.03
2018-05-19T05:12:10.046Z,18.20
2018-05-19T05:14:37.558Z,20.50
2018-05-19T05:17:05.077Z,18.03
2018-05-19T05:19:33.361Z,18.13
2018-05-19T05:22:00.890Z,19.00
2018-05-19T05:24:28.418Z,18.10
2018-05-19T05:26:55.935Z,18.50
2018-05-19T05:29:24.218Z,18.77
2018-05-19T05:31:51.758Z,18.67
2018-05-19T05:34:20.037Z,20.77
2018-05-19T05:36:48.322Z,20.17
2018-05-19T05:39:16.601Z,20.30
2018-05-19T05:41:44.886Z,20.07
2018-05-19T05:44:12.410Z,22.10
2018-05-19T05:46:39.941Z,19.47
2018-05-19T05:49:07.461Z,20.60
2018-05-19T05:51:34.997Z,22.17
2018-05-19T05:54:03.281Z,21.90
2018-05-19T05:56:31.565Z,23.57
2018-05-19T05:58:59.847Z,26.40
2018-05-19T06:01:27.366Z,22.30
2018-05-19T06:03:54.905Z,23.90
2018-05-19T06:06:22.444Z,24.83
2018-05-19T06:08:49.965Z,25.83
2018-05-19T06:11:18.245Z,22.17
2018-05-19T06:13:46.541Z,25.90
2018-05-19T06:16:14.062Z,25.03
2018-05-19T06:18:41.629Z,21.50
2018-05-19T06:21:09.105Z,25.40
2018-05-19T06:23:37.385Z,26.13
2018-05-19T06:26:05.686Z,26.23
2018-05-19T06:28:33.213Z,25.70
2018-05-19T06:31:01.506Z,25.17
2018-05-19T06:33:29.030Z,23.50
2018-05-19T06:35:56.553Z,26.27
2018-05-19T06:38:24.072Z,24.30
2018-05-19T06:40:52.365Z,29.87
2018-05-19T06:43:19.873Z,23.90
2018-05-19T06:45:47.631Z,25.17
2018-05-19T06:48:16.167Z,25.17
2018-05-19T06:50:44.435Z,26.30
2018-05-19T06:53:11.954Z,28.83
2018-05-19T06:55:39.481Z,25.97
2018-05-19T06:58:07.028Z,26.73
2018-05-19T07:00:34.549Z,26.60
2018-05-19T07:03:02.833Z,29.57
2018-05-19T07:05:31.337Z,28.50
2018-05-19T07:07:58.858Z,27.83
2018-05-19T07:10:26.389Z,24.17
2018-05-19T07:12:53.905Z,25.80
2018-05-19T07:15:21.426Z,25.97
2018-05-19T07:17:48.949Z,27.40
2018-05-19T07:20:16.473Z,27.77
2018-05-19T07:22:44.769Z,23.13
2018-05-19T07:25:12.324Z,24.50
2018-05-19T07:27:39.853Z,26.60
2018-05-19T07:30:08.416Z,27.77
2018-05-19T07:32:36.247Z,27.60
2018-05-19T07:35:04.016Z,27.27
2018-05-19T07:37:31.553Z,29.50
2018-05-19T07:39:59.097Z,26.13
2018-05-19T07:42:27.393Z,34.43
2018-05-19T07:44:54.924Z,27.40
2018-05-19T07:47:23.534Z,25.30
2018-05-19T07:49:51.418Z,25.77
2018-05-19T07:52:19.285Z,24.57
2018-05-19T07:54:47.152Z,26.07
2018-05-19T07:57:15.022Z,25.43
2018-05-19T07:59:42.824Z,23.23
2018-05-19T08:02:11.469Z,22.70
2018-05-19T08:04:39.235Z,25.30
2018-05-19T08:07:07.102Z,24.57
2018-05-19T08:09:34.696Z,26.13
2018-05-19T08:12:02.229Z,23.13
2018-05-19T08:14:29.756Z,21.97
2018-05-19T08:16:57.317Z,22.83
2018-05-19T08:19:25.610Z,19.70
2018-05-19T08:21:53.141Z,20.73
2018-05-19T08:24:21.442Z,20.83
2018-05-19T08:26:48.954Z,21.63
2018-05-19T08:29:16.469Z,22.73
2018-05-19T08:31:43.994Z,22.40
2018-05-19T08:34:12.277Z,23.17
2018-05-19T08:36:40.573Z,23.43
2018-05-19T08:39:08.104Z,20.67
2018-05-19T08:41:36.394Z,19.13
2018-05-19T08:44:04.696Z,19.63
2018-05-19T08:46:32.217Z,20.37
2018-05-19T08:49:00.515Z,20.60
2018-05-19T08:51:28.026Z,20.77
2018-05-19T08:53:55.543Z,22.17
2018-05-19T08:56:23.061Z,22.73
2018-05-19T08:58:50.575Z,23.73
2018-05-19T09:01:18.100Z,25.20
2018-05-19T09:03:46.387Z,21.50
2018-05-19T09:06:13.919Z,21.10
2018-05-19T09:08:41.437Z,18.93
2018-05-19T09:11:08.961Z,21.13
2018-05-19T09:13:36.485Z,17.33
2018-05-19T09:16:05.502Z,17.87
2018-05-19T09:18:33.789Z,19.03
2018-05-19T09:21:01.301Z,18.40
2018-05-19T09:23:28.853Z,18.67
2018-05-19T09:25:56.362Z,18.00
2018-05-19T09:28:24.645Z,14.63
2018-05-19T09:30:52.158Z,13.23
2018-05-19T09:33:19.685Z,17.43
2018-05-19T09:35:47.301Z,17.43
2018-05-19T09:38:14.748Z,18.27
2018-05-19T09:40:43.043Z,19.33
2018-05-19T09:43:11.323Z,19.30
2018-05-19T09:45:39.613Z,18.63
2018-05-19T09:48:07.126Z,18.17
2018-05-19T09:50:34.648Z,15.13
2018-05-19T09:53:02.170Z,15.67
2018-05-19T09:55:30.465Z,15.80
2018-05-19T09:57:57.991Z,16.67
2018-05-19T10:00:26.282Z,16.70
2018-05-19T10:02:54.557Z,15.93
2018-05-19T10:05:22.837Z,14.87
2018-05-19T10:07:51.121Z,14.20
2018-05-19T10:10:19.400Z,16.40
2018-05-19T10:12:46.918Z,16.20
2018-05-19T10:15:15.943Z,15.50
2018-05-19T10:17:44.225Z,15.13
2018-05-19T10:20:12.523Z,16.17
2018-05-19T10:22:40.137Z,15.50
2018-05-19T10:25:08.337Z,15.33
2018-05-19T10:27:36.614Z,15.13
2018-05-19T10:30:04.897Z,14.80
2018-05-19T10:32:32.414Z,13.87
2018-05-19T10:35:00.707Z,14.20
2018-05-19T10:37:28.226Z,17.47
2018-05-19T10:39:55.749Z,15.67
2018-05-19T10:42:23.262Z,13.80
2018-05-19T10:44:50.788Z,13.47
2018-05-19T10:47:18.309Z,14.90
2018-05-19T10:49:46.598Z,14.03
2018-05-19T10:52:14.869Z,13.70
2018-05-19T10:54:43.178Z,13.90
2018-05-19T10:57:10.689Z,13.37
2018-05-19T10:59:38.197Z,13.20
2018-05-19T11:02:05.709Z,17.93
2018-05-19T11:04:33.989Z,13.67
2018-05-19T11:07:02.278Z,13.77
2018-05-19T11:09:30.557Z,14.30
2018-05-19T11:11:58.849Z,16.73
2018-05-19T11:14:26.361Z,14.83
2018-05-19T11:16:53.886Z,13.23
2018-05-19T11:19:21.400Z,13.60
2018-05-19T11:21:49.681Z,15.33
2018-05-19T11:24:17.965Z,14.73
2018-05-19T11:26:46.261Z,13.30
2018-05-19T11:29:13.778Z,14.87
2018-05-19T11:31:42.067Z,13.37
2018-05-19T11:34:10.353Z,13.20
2018-05-19T11:36:37.902Z,13.30
2018-05-19T11:39:06.207Z,12.90
2018-05-19T11:41:33.725Z,12.60
2018-05-19T11:44:02.010Z,12.37
2018-05-19T11:46:30.297Z,12.07
2018-05-19T11:48:58.577Z,12.67
2018-05-19T11:51:26.871Z,11.30
2018-05-19T11:53:54.385Z,12.20
2018-05-19T11:56:21.901Z,12.40
2018-05-19T11:58:49.438Z,12.17
2018-05-19T12:01:16.950Z,12.60
2018-05-19T12:03:44.473Z,11.23
2018-05-19T12:06:11.997Z,10.97
2018-05-19T12:08:40.285Z,11.57
2018-05-19T12:11:08.557Z,11.37
2018-05-19T12:13:36.837Z,12.67
2018-05-19T12:16:04.355Z,14.27
2018-05-19T12:18:31.875Z,12.97
2018-05-19T12:20:59.391Z,11.83
2018-05-19T12:23:27.683Z,12.67
2018-05-19T12:25:55.976Z,12.27
2018-05-19T12:28:23.494Z,11.37
2018-05-19T12:30:51.006Z,12.27
2018-05-19T12:33:18.526Z,13.13
2018-05-19T12:35:46.832Z,15.40
2018-05-19T12:38:14.374Z,13.57
2018-05-19T12:40:42.654Z,13.43
2018-05-19T12:43:10.934Z,13.70
2018-05-19T12:45:38.442Z,16.47
2018-05-19T12:48:05.958Z,14.53
2018-05-19T12:50:33.471Z,13.57
2018-05-19T12:53:00.989Z,12.90
2018-05-19T12:55:28.514Z,14.23
2018-05-19T12:57:56.815Z,12.37
2018-05-19T13:00:24.329Z,13.17
2018-05-19T13:02:51.850Z,14.00
2018-05-19T13:05:19.369Z,12.63
2018-05-19T13:07:47.649Z,25.67
2018-05-19T13:10:15.934Z,15.13
2018-05-19T13:12:43.465Z,13.37
2018-05-19T13:15:10.977Z,14.20
2018-05-19T13:17:38.497Z,12.87
2018-05-19T13:20:06.792Z,12.73
2018-05-19T13:22:34.304Z,12.10
2018-05-19T13:25:01.821Z,12.40
2018-05-19T13:27:29.342Z,11.60
2018-05-19T13:29:57.637Z,12.43
2018-05-19T13:32:25.162Z,11.10
2018-05-19T13:34:52.694Z,12.90
2018-05-19T13:37:20.405Z,12.53
2018-05-19T13:39:48.686Z,12.50
2018-05-19T13:42:16.961Z,11.50
2018-05-19T13:44:45.237Z,14.40
2018-05-19T13:47:13.522Z,10.27
2018-05-19T13:49:41.801Z,11.83
2018-05-19T13:52:09.365Z,8.73
2018-05-19T13:54:36.842Z,10.67
2018-05-19T13:57:04.377Z,10.20
2018-05-19T13:59:31.881Z,9.50
2018-05-19T14:01:59.382Z,9.57
2018-05-19T14:04:27.670Z,10.40
2018-05-19T14:06:55.248Z,11.90
2018-05-19T14:09:22.761Z,11.17
2018-05-19T14:11:50.290Z,11.93
2018-05-19T14:14:17.797Z,12.17
2018-05-19T14:16:46.084Z,11.23
2018-05-19T14:19:13.597Z,9.50
2018-05-19T14:21:41.198Z,14.10
2018-05-19T14:24:09.477Z,10.57
2018-05-19T14:26:37.754Z,10.20
2018-05-19T14:29:06.044Z,12.17
2018-05-19T14:31:33.557Z,12.30
2018-05-19T14:34:01.077Z,10.93
2018-05-19T14:36:28.593Z,12.10
2018-05-19T14:38:56.881Z,10.73
2018-05-19T14:41:25.159Z,10.60
2018-05-19T14:43:52.690Z,11.03
2018-05-19T14:46:20.209Z,11.37
2018-05-19T14:48:47.726Z,10.17
2018-05-19T14:51:16.009Z,10.07
2018-05-19T14:53:44.291Z,10.50
2018-05-19T14:56:11.850Z,11.03
2018-05-19T14:58:40.140Z,10.93
2018-05-19T15:01:07.655Z,9.93
2018-05-19T15:03:35.187Z,11.47
2018-05-19T15:06:02.697Z,10.50
2018-05-19T15:08:30.969Z,10.30
2018-05-19T15:10:59.257Z,9.00
2018-05-19T15:13:26.761Z,9.30
2018-05-19T15:15:54.362Z,9.00
2018-05-19T15:18:22.641Z,10.10
2018-05-19T15:20:50.913Z,10.70
2018-05-19T15:23:19.277Z,9.47
2018-05-19T15:25:46.738Z,9.63
2018-05-19T15:28:14.241Z,9.73
2018-05-19T15:30:41.755Z,9.20
2018-05-19T15:33:09.337Z,10.03
2018-05-19T15:35:36.793Z,9.27
2018-05-19T15:38:05.088Z,12.40
2018-05-19T15:40:32.594Z,10.20
2018-05-19T15:43:00.110Z,9.67
2018-05-19T15:45:27.628Z,10.00
2018-05-19T15:47:55.913Z,9.90
2018-05-19T15:50:24.221Z,10.70
2018-05-19T15:52:51.755Z,10.50
2018-05-19T15:55:20.082Z,9.50
2018-05-19T15:57:47.560Z,9.93
2018-05-19T16:00:16.577Z,8.60
2018-05-19T16:02:44.862Z,10.10
2018-05-19T16:05:13.146Z,9.40
2018-05-19T16:07:40.653Z,9.00
2018-05-19T16:10:08.153Z,9.40
2018-05-19T16:12:36.441Z,8.70
2018-05-19T16:15:03.996Z,9.63
2018-05-19T16:17:31.521Z,9.37
2018-05-19T16:19:59.065Z,10.30
2018-05-19T16:22:26.610Z,8.90
2018-05-19T16:24:54.125Z,9.33
2018-05-19T16:27:22.406Z,9.07
2018-05-19T16:29:50.673Z,9.27
2018-05-19T16:32:18.953Z,8.77
2018-05-19T16:34:47.230Z,9.80
2018-05-19T16:37:15.505Z,12.40
2018-05-19T16:39:43.789Z,11.20
2018-05-19T16:42:12.082Z,30.77
2018-05-19T16:44:39.594Z,10.60
2018-05-19T16:47:07.109Z,11.03
2018-05-19T16:49:34.639Z,17.43
2018-05-19T16:52:02.916Z,9.37
2018-05-19T16:54:31.233Z,30.60
2018-05-19T16:56:58.726Z,33.77
2018-05-19T16:59:26.245Z,11.30
2018-05-19T17:01:53.753Z,15.87
2018-05-19T17:04:22.037Z,9.20
2018-05-19T17:06:50.312Z,10.53
2018-05-19T17:09:18.599Z,7.77
2018-05-19T17:11:46.874Z,8.57
2018-05-19T17:14:15.153Z,8.00
2018-05-19T17:16:42.668Z,7.80
2018-05-19T17:19:10.982Z,11.40
2018-05-19T17:21:39.258Z,15.20
2018-05-19T17:24:07.564Z,13.90
2018-05-19T17:26:35.065Z,7.83
2018-05-19T17:29:02.579Z,6.60
2018-05-19T17:31:30.085Z,7.80
2018-05-19T17:33:58.385Z,6.73
2018-05-19T17:36:26.653Z,7.80
2018-05-19T17:38:54.925Z,7.03
2018-05-19T17:41:22.441Z,6.73
2018-05-19T17:43:49.941Z,7.43
2018-05-19T17:46:17.478Z,6.10
2018-05-19T17:48:44.990Z,10.20
2018-05-19T17:51:12.499Z,7.37
2018-05-19T17:53:40.021Z,6.53
2018-05-19T17:56:07.645Z,5.77
2018-05-19T17:58:35.926Z,6.73
2018-05-19T18:01:04.201Z,6.50
2018-05-19T18:03:32.469Z,6.90
2018-05-19T18:05:59.981Z,7.23
2018-05-19T18:08:27.489Z,6.77
2018-05-19T18:10:55.010Z,6.27
2018-05-19T18:13:22.529Z,6.63
2018-05-19T18:15:50.042Z,6.70
2018-05-19T18:18:17.626Z,6.93
2018-05-19T18:20:45.909Z,6.60
2018-05-19T18:23:14.185Z,7.10
2018-05-19T18:25:42.449Z,7.07
2018-05-19T18:28:10.725Z,6.40
2018-05-19T18:30:38.235Z,6.30
2018-05-19T18:33:05.772Z,6.20
2018-05-19T18:35:33.301Z,8.23
2018-05-19T18:38:01.579Z,7.10
2018-05-19T18:40:29.874Z,7.13
2018-05-19T18:42:58.161Z,12.00
2018-05-19T18:45:25.678Z,9.80
2018-05-19T18:47:53.210Z,14.77
2018-05-19T18:50:20.717Z,9.33
2018-05-19T18:53:00.028Z,8.90
2018-05-19T18:55:27.545Z,8.07
2018-05-19T18:57:55.913Z,7.50
2018-05-19T19:00:23.506Z,8.10
2018-05-19T19:02:51.097Z,8.13
2018-05-19T19:05:19.384Z,9.90
2018-05-19T19:07:46.901Z,8.13
2018-05-19T19:10:14.425Z,7.30
2018-05-19T19:12:41.930Z,7.57
2018-05-19T19:15:09.449Z,7.13
2018-05-19T19:17:36.966Z,9.17
2018-05-19T19:20:04.477Z,9.60
2018-05-19T19:22:31.989Z,8.93
2018-05-19T19:25:00.284Z,10.10
2018-05-19T19:27:28.577Z,11.53
2018-05-19T19:29:56.110Z,11.90
2018-05-19T19:32:24.486Z,8.63
2018-05-19T19:34:52.677Z,8.27
2018-05-19T19:37:20.960Z,9.40
2018-05-19T19:39:48.498Z,12.03
2018-05-19T19:42:16.795Z,12.40
2018-05-19T19:44:44.317Z,8.50
2018-05-19T19:47:11.833Z,8.40
2018-05-19T19:49:39.353Z,8.83
2018-05-19T19:52:07.768Z,8.27
2018-05-19T19:54:35.285Z,7.70
2018-05-19T19:57:03.561Z,8.60
2018-05-19T19:59:31.119Z,7.10
2018-05-19T20:01:58.620Z,7.90
2018-05-19T20:04:26.138Z,7.57
2018-05-19T20:06:54.425Z,8.70
2018-05-19T20:09:22.701Z,8.87
2018-05-19T20:11:50.993Z,8.30
2018-05-19T20:14:18.498Z,8.47
2018-05-19T20:16:47.197Z,8.70
2018-05-19T20:19:14.721Z,7.67
2018-05-19T20:21:42.228Z,9.00
2018-05-19T20:24:09.738Z,8.13
2018-05-19T20:26:37.245Z,8.43
2018-05-19T20:29:04.830Z,7.90
2018-05-19T20:31:32.337Z,9.27
2018-05-19T20:33:59.858Z,8.97
2018-05-19T20:36:27.366Z,8.50
2018-05-19T20:38:55.058Z,8.20
2018-05-19T20:41:23.428Z,8.93
2018-05-19T20:43:50.932Z,8.10
2018-05-19T20:46:18.449Z,8.77
2018-05-19T20:48:46.725Z,8.07
2018-05-19T20:51:15.096Z,7.90
2018-05-19T20:53:42.537Z,8.60
2018-05-19T20:56:11.566Z,8.63
2018-05-19T20:58:39.846Z,8.73
2018-05-19T21:01:07.386Z,7.97
2018-05-19T21:03:35.666Z,9.37
2018-05-19T21:06:03.950Z,8.03
2018-05-19T21:08:32.229Z,10.97
2018-05-19T21:11:00.509Z,8.47
2018-05-19T21:13:28.793Z,9.97
2018-05-19T21:15:56.298Z,11.47
2018-05-19T21:18:23.824Z,8.97
2018-05-19T21:20:51.345Z,8.83
2018-05-19T21:23:19.641Z,8.87
2018-05-19T21:25:47.149Z,8.90
2018-05-19T21:28:14.662Z,8.50
2018-05-19T21:30:42.186Z,9.60
2018-05-19T21:33:09.773Z,8.33
2018-05-19T21:35:38.046Z,9.93
2018-05-19T21:38:06.322Z,8.67
2018-05-19T21:40:34.598Z,8.30
2018-05-19T21:43:02.889Z,8.60
2018-05-19T21:45:30.393Z,7.97
2018-05-19T21:47:57.897Z,8.60
2018-05-19T21:50:26.179Z,9.93
2018-05-19T21:52:53.729Z,9.40
2018-05-19T21:55:22.002Z,8.53
2018-05-19T21:57:50.289Z,10.30
2018-05-19T22:00:17.797Z,9.33
2018-05-19T22:02:45.489Z,8.87
2018-05-19T22:05:13.009Z,9.10
2018-05-19T22:07:40.517Z,8.40
2018-05-19T22:10:08.797Z,9.47
2018-05-19T22:12:37.078Z,12.20
2018-05-19T22:15:04.595Z,9.33
2018-05-19T22:17:32.110Z,9.37
2018-05-19T22:19:59.627Z,10.33
2018-05-19T22:22:27.445Z,10.30
2018-05-19T22:24:54.846Z,8.23
2018-05-19T22:27:22.366Z,9.73
2018-05-19T22:29:49.887Z,9.27
2018-05-19T22:32:18.165Z,8.93
2018-05-19T22:34:46.437Z,9.27
2018-05-19T22:37:14.725Z,9.67
2018-05-19T22:39:43.001Z,8.73
2018-05-19T22:42:10.513Z,10.63
2018-05-19T22:44:38.029Z,9.20
2018-05-19T22:47:05.598Z,9.50
2018-05-19T22:49:33.125Z,10.40
2018-05-19T22:52:01.410Z,9.10
2018-05-19T22:54:29.698Z,9.67
2018-05-19T22:56:57.210Z,9.17
2018-05-19T22:59:24.737Z,12.90
2018-05-19T23:01:52.246Z,9.20
2018-05-19T23:04:20.529Z,10.27
2018-05-19T23:06:48.821Z,10.53
2018-05-19T23:09:17.112Z,9.53
2018-05-19T23:11:44.620Z,10.10
2018-05-19T23:14:12.133Z,10.40
2018-05-19T23:16:39.657Z,9.43
2018-05-19T23:19:07.943Z,10.40
2018-05-19T23:21:35.474Z,9.20
2018-05-19T23:24:04.489Z,9.27
2018-05-19T23:26:32.767Z,10.43
2018-05-19T23:29:01.049Z,9.20
2018-05-19T23:31:29.323Z,9.57
2018-05-19T23:33:57.610Z,9.57
2018-05-19T23:36:25.125Z,9.23
2018-05-19T23:38:53.413Z,11.00
2018-05-19T23:41:20.933Z,9.53
2018-05-19T23:43:48.441Z,9.63
2018-05-19T23:46:16.728Z,11.40
2018-05-19T23:48:45.010Z,10.50
2018-05-19T23:51:13.296Z,10.73
2018-05-19T23:53:40.810Z,9.73
2018-05-19T23:56:08.338Z,11.30
2018-05-19T23:58:35.865Z,11.47
